Time;durP1;ratioP1;P1;durP2;ratioP2;P2;SDS_P1;SDS_P2;PMS_P1;PMS_P2;Temp;Humidity;BMP_temperature;BMP_pressure;BME280_temperature;BME280_humidity;BME280_pressure;Samples;Min_cycle;Max_cycle;Signal;HPM_P1;HPM_P2
2022/04/12 00:00:00;;;;;;;;;;;;;;;;;;347205;28;1003;-73
2022/04/12 00:00:11;;;;;;;;;;;;;;;;;;347132;28;1027;-73
2022/04/12 00:00:22;;;;;;;;;;;;;;;;;;346696;28;1154;-73
2022/04/12 00:00:32;;;;;;;;;;;;;;;;;;347145;28;1000;-73
2022/04/12 00:00:43;;;;;;;;;;;;;;;;;;347184;28;780;-73
2022/04/12 00:00:53;;;;;;;;;;;;;;;;;;347138;28;877;-73
2022/04/12 00:01:04;;;;;;;;;;;;;;;;;;347146;28;1086;-73
2022/04/12 00:01:14;;;;;;;;;;;;;;;;;;347168;28;921;-73
2022/04/12 00:01:24;;;;;;;;;;;;;;;;;;347112;28;1064;-74
2022/04/12 00:01:34;;;;;;;;;;;;;;;;;;347152;28;937;-74
2022/04/12 00:01:46;;;;;;;;;;;;;;;;;;347077;28;1130;-73
2022/04/12 00:01:57;;;;;;;;;;;;;;;;;;347135;28;887;-73
2022/04/12 00:02:07;;;;;;;;;;;;;;;;;;347213;28;944;-73
2022/04/12 00:02:17;;;;;;;;;;;;;;;;;;347218;28;933;-74
2022/04/12 00:02:28;;;;;;;;;;;;;;;;;;347178;28;825;-73
2022/04/12 00:02:38;;;;;;;;;;;;;;;;;;347178;28;825;-73
2022/04/12 00:02:48;;;;;;;;;;;;;;;;;;346969;28;1408;-73
2022/04/12 00:02:59;;;;;;;;;;;;;;;;;;347075;28;873;-73
2022/04/12 00:03:10;;;;;;;;;;;;;;;;;;347214;28;1000;-73
2022/04/12 00:03:20;;;;;;;;;;;;;;;;;;347140;28;814;-73
2022/04/12 00:03:30;;;;;;;;;;;;;;;;;;347135;28;909;-73
2022/04/12 00:03:40;;;;;;;;;;;;;;;;;;347193;28;972;-74
2022/04/12 00:03:51;;;;;;;;;;;;;;;;;;347080;28;992;-74
2022/04/12 00:04:01;;;;;;;;;;;;;;;;;;347203;28;952;-73
2022/04/12 00:04:12;;;;;;;;;;;;;;;;;;347004;28;1032;-73
2022/04/12 00:04:22;;;;;;;;;;;;;;;;;;347139;28;913;-73
2022/04/12 00:04:32;;;;;;;;;;;;;;;;;;347158;28;909;-73
2022/04/12 00:04:42;;;;;;;;;;;;;;;;;;347129;28;1008;-73
2022/04/12 00:04:52;;;;;;;;;;;;;;;;;;347136;28;925;-73
2022/04/12 00:05:03;;;;;;;;;;;;;;;;;;347209;28;936;-73
2022/04/12 00:05:13;;;;;;;;;;;;;;;;;;347197;28;803;-73
2022/04/12 00:05:23;;;;;;;;;;;;;;;;;;347149;28;889;-74
2022/04/12 00:05:34;;;;;;;;;;;;;;;;;;347140;28;858;-73
2022/04/12 00:05:44;;;;;;;;;;;;;;;;;;347215;28;924;-73
2022/04/12 00:05:55;;;;;;;;;;;;;;;;;;347047;28;1055;-73
2022/04/12 00:06:05;;;;;;;;;;;;;;;;;;346965;28;992;-73
2022/04/12 00:06:15;;;;;;;;;;;;;;;;;;347205;28;857;-74
2022/04/12 00:06:25;;;;;;;;;;;;;;;;;;347169;28;883;-74
2022/04/12 00:06:36;;;;;;;;;;;;;;;;;;347125;28;1016;-73
2022/04/12 00:06:46;;;;;;;;;;;;;;;;;;347134;28;917;-74
2022/04/12 00:06:57;;;;;;;;;;;;;;;;;;347020;28;1015;-73
2022/04/12 00:07:07;;;;;;;;;;;;;;;;;;347184;28;916;-74
2022/04/12 00:07:17;;;;;;;;;;;;;;;;;;347044;28;1873;-73
2022/04/12 00:07:28;;;;;;;;;;;;;;;;;;346391;28;1741;-73
2022/04/12 00:07:41;;;;;;;;;;;;;;;;;;347041;28;1492;-73
2022/04/12 00:07:52;;;;;;;;;;;;;;;;;;347142;28;961;-73
2022/04/12 00:08:03;;;;;;;;;;;;;;;;;;347180;28;881;-73
2022/04/12 00:08:13;;;;;;;;;;;;;;;;;;347141;28;945;-73
2022/04/12 00:08:23;;;;;;;;;;;;;;;;;;347144;28;870;-73
2022/04/12 00:08:34;;;;;;;;;;;;;;;;;;347131;28;1902;-73
2022/04/12 00:08:44;;;;;;;;;;;;;;;;;;347122;28;972;-74
2022/04/12 00:08:54;;;;;;;;;;;;;;;;;;347160;28;980;-73
2022/04/12 00:09:05;;;;;;;;;;;;;;;;;;346976;28;925;-73
2022/04/12 00:09:15;;;;;;;;;;;;;;;;;;346822;28;1327;-74
2022/04/12 00:09:25;;;;;;;;;;;;;;;;;;345802;28;929;-73
2022/04/12 00:09:35;;;;;;;;;;;;;;;;;;345771;28;973;-73
2022/04/12 00:09:45;;;;;;;;;;;;;;;;;;345737;28;917;-74
2022/04/12 00:09:56;;;;;;;;;;;;;;;;;;345807;28;977;-73
2022/04/12 00:10:06;;;;;;;;;;;;;;;;;;345777;28;840;-73
2022/04/12 00:10:17;;;;;;;;;;;;;;;;;;345385;28;1366;-73
2022/04/12 00:10:28;;;;;;;;;;;;;;;;;;345809;28;968;-73
2022/04/12 00:10:39;;;;;;;;;;;;;;;;;;345674;28;823;-73
2022/04/12 00:10:49;;;;;;;;;;;;;;;;;;345788;28;913;-74
2022/04/12 00:11:00;;;;;;;;;;;;;;;;;;345786;28;853;-74
2022/04/12 00:11:10;;;;;;;;;;;;;;;;;;345731;28;884;-74
2022/04/12 00:11:21;;;;;;;;;;;;;;;;;;345866;28;905;-73
2022/04/12 00:11:31;;;;;;;;;;;;;;;;;;346870;28;783;-73
2022/04/12 00:11:42;;;;;;;;;;;;;;;;;;347166;28;1003;-74
2022/04/12 00:11:52;;;;;;;;;;;;;;;;;;347130;28;928;-73
2022/04/12 00:12:02;;;;;;;;;;;;;;;;;;347114;28;1043;-73
2022/04/12 00:12:15;;;;;;;;;;;;;;;;;;347092;28;921;-73
2022/04/12 00:12:25;;;;;;;;;;;;;;;;;;347077;28;776;-73
2022/04/12 00:12:37;;;;;;;;;;;;;;;;;;347087;28;1027;-74
2022/04/12 00:12:47;;;;;;;;;;;;;;;;;;347120;28;849;-73
2022/04/12 00:12:58;;;;;;;;;;;;;;;;;;347163;28;913;-73
2022/04/12 00:13:09;;;;;;;;;;;;;;;;;;347122;28;1008;-73
2022/04/12 00:13:19;;;;;;;;;;;;;;;;;;347196;28;916;-73
2022/04/12 00:13:30;;;;;;;;;;;;;;;;;;347077;28;975;-74
2022/04/12 00:13:40;;;;;;;;;;;;;;;;;;347181;28;912;-74
2022/04/12 00:13:50;;;;;;;;;;;;;;;;;;346928;28;1164;-73
2022/04/12 00:14:00;;;;;;;;;;;;;;;;;;347204;28;888;-73
2022/04/12 00:14:11;;;;;;;;;;;;;;;;;;347091;28;1024;-74
2022/04/12 00:14:21;;;;;;;;;;;;;;;;;;347068;28;1053;-73
2022/04/12 00:14:31;;;;;;;;;;;;;;;;;;346933;28;1808;-73
2022/04/12 00:14:42;;;;;;;;;;;;;;;;;;347218;28;806;-73
2022/04/12 00:14:53;;;;;;;;;;;;;;;;;;347164;28;916;-73
2022/04/12 00:15:07;;;;;;;;;;;;;;;;;;347138;28;1012;-73
2022/04/12 00:15:17;;;;;;;;;;;;;;;;;;347086;28;921;-73
2022/04/12 00:15:27;;;;;;;;;;;;;;;;;;347175;28;925;-74
2022/04/12 00:15:38;;;;;;;;;;;;;;;;;;346856;28;1490;-73
2022/04/12 00:15:49;;;;;;;;;;;;;;;;;;346708;28;1426;-73
2022/04/12 00:15:59;;;;;;;;;;;;;;;;;;347040;28;1512;-74
2022/04/12 00:16:09;;;;;;;;;;;;;;;;;;347175;28;858;-74
2022/04/12 00:16:20;;;;;;;;;;;;;;;;;;347106;28;794;-73
2022/04/12 00:16:30;;;;;;;;;;;;;;;;;;347182;28;928;-73
2022/04/12 00:16:40;;;;;;;;;;;;;;;;;;347107;28;933;-73
2022/04/12 00:19:02;;;;;;;;;;;;;;;;;;347175;28;878;-73
2022/04/12 00:19:02;;;;;;;;;;;;;;;;;;346021;28;929;-73
2022/04/12 00:19:14;;;;;;;;;;;;;;;;;;346102;28;766;-73
2022/04/12 00:19:24;;;;;;;;;;;;;;;;;;346032;28;1011;-73
2022/04/12 00:19:34;;;;;;;;;;;;;;;;;;346079;28;842;-73
2022/04/12 00:19:45;;;;;;;;;;;;;;;;;;346069;28;940;-74
2022/04/12 00:19:56;;;;;;;;;;;;;;;;;;346023;28;972;-74
2022/04/12 00:20:06;;;;;;;;;;;;;;;;;;345983;28;1312;-73
2022/04/12 00:20:18;;;;;;;;;;;;;;;;;;346021;28;1040;-73
2022/04/12 00:20:28;;;;;;;;;;;;;;;;;;346010;28;968;-73
2022/04/12 00:20:39;;;;;;;;;;;;;;;;;;346019;28;1007;-74
2022/04/12 00:20:49;;;;;;;;;;;;;;;;;;346087;28;932;-73
2022/04/12 00:21:00;;;;;;;;;;;;;;;;;;346036;28;925;-74
2022/04/12 00:21:10;;;;;;;;;;;;;;;;;;346119;28;916;-73
2022/04/12 00:21:20;;;;;;;;;;;;;;;;;;346014;28;972;-73
2022/04/12 00:21:34;;;;;;;;;;;;;;;;;;346090;28;837;-73
2022/04/12 00:21:45;;;;;;;;;;;;;;;;;;346103;28;869;-73
2022/04/12 00:21:55;;;;;;;;;;;;;;;;;;345981;28;1000;-73
2022/04/12 00:22:05;;;;;;;;;;;;;;;;;;346045;28;1004;-73
2022/04/12 00:22:15;;;;;;;;;;;;;;;;;;346056;28;1096;-73
2022/04/12 00:22:26;;;;;;;;;;;;;;;;;;346091;28;881;-74
2022/04/12 00:22:36;;;;;;;;;;;;;;;;;;345939;28;875;-73
2022/04/12 00:22:46;;;;;;;;;;;;;;;;;;346098;28;917;-73
2022/04/12 00:22:57;;;;;;;;;;;;;;;;;;346067;28;964;-73
2022/04/12 00:23:07;;;;;;;;;;;;;;;;;;345995;28;1020;-73
2022/04/12 00:23:18;;;;;;;;;;;;;;;;;;346057;28;952;-73
2022/04/12 00:23:28;;;;;;;;;;;;;;;;;;346091;28;811;-73
2022/04/12 00:23:38;;;;;;;;;;;;;;;;;;346046;28;863;-73
2022/04/12 00:23:49;;;;;;;;;;;;;;;;;;345976;28;956;-73
2022/04/12 00:23:59;;;;;;;;;;;;;;;;;;346033;28;975;-73
2022/04/12 00:24:09;;;;;;;;;;;;;;;;;;345797;28;1011;-74
2022/04/12 00:24:20;;;;;;;;;;;;;;;;;;346058;28;897;-73
2022/04/12 00:24:30;;;;;;;;;;;;;;;;;;346093;28;894;-73
2022/04/12 00:24:40;;;;;;;;;;;;;;;;;;345974;28;901;-73
2022/04/12 00:24:50;;;;;;;;;;;;;;;;;;346091;28;836;-73
2022/04/12 00:25:01;;;;;;;;;;;;;;;;;;346055;28;948;-73
2022/04/12 00:25:12;;;;;;;;;;;;;;;;;;346014;28;996;-73
2022/04/12 00:25:23;;;;;;;;;;;;;;;;;;346018;28;1004;-73
2022/04/12 00:25:33;;;;;;;;;;;;;;;;;;346026;28;782;-74
2022/04/12 00:25:44;;;;;;;;;;;;;;;;;;345975;28;849;-73
2022/04/12 00:25:54;;;;;;;;;;;;;;;;;;346032;28;960;-73
2022/04/12 00:26:05;;;;;;;;;;;;;;;;;;345993;28;957;-74
2022/04/12 00:26:16;;;;;;;;;;;;;;;;;;346093;28;965;-73
2022/04/12 00:26:26;;;;;;;;;;;;;;;;;;346067;28;995;-73
2022/04/12 00:26:36;;;;;;;;;;;;;;;;;;346017;28;800;-73
2022/04/12 00:26:49;;;;;;;;;;;;;;;;;;346020;28;929;-74
2022/04/12 00:26:59;;;;;;;;;;;;;;;;;;345978;28;843;-74
2022/04/12 00:27:09;;;;;;;;;;;;;;;;;;346125;28;845;-73
2022/04/12 00:27:20;;;;;;;;;;;;;;;;;;346134;28;763;-73
2022/04/12 00:27:30;;;;;;;;;;;;;;;;;;346096;28;813;-74
2022/04/12 00:27:41;;;;;;;;;;;;;;;;;;346011;28;913;-73
2022/04/12 00:27:52;;;;;;;;;;;;;;;;;;346079;28;980;-73
2022/04/12 00:28:02;;;;;;;;;;;;;;;;;;346017;28;968;-73
2022/04/12 00:28:13;;;;;;;;;;;;;;;;;;346051;28;841;-73
2022/04/12 00:28:23;;;;;;;;;;;;;;;;;;346346;28;897;-73
2022/04/12 00:28:34;;;;;;;;;;;;;;;;;;346871;28;1978;-73
2022/04/12 00:28:44;;;;;;;;;;;;;;;;;;347353;28;912;-73
2022/04/12 00:28:54;;;;;;;;;;;;;;;;;;347029;28;1555;-73
2022/04/12 00:29:04;;;;;;;;;;;;;;;;;;346765;28;1603;-74
2022/04/12 00:29:14;;;;;;;;;;;;;;;;;;346791;28;1951;-73
2022/04/12 00:29:25;;;;;;;;;;;;;;;;;;347389;28;1017;-73
2022/04/12 00:29:35;;;;;;;;;;;;;;;;;;347394;28;821;-73
2022/04/12 00:29:45;;;;;;;;;;;;;;;;;;347357;28;1048;-73
2022/04/12 00:29:55;;;;;;;;;;;;;;;;;;347430;28;841;-73
2022/04/12 00:30:06;;;;;;;;;;;;;;;;;;347403;28;920;-73
2022/04/12 00:30:18;;;;;;;;;;;;;;;;;;347402;28;1059;-73
2022/04/12 00:30:28;;;;;;;;;;;;;;;;;;347423;28;948;-73
2022/04/12 00:30:39;;;;;;;;;;;;;;;;;;347448;28;972;-73
2022/04/12 00:30:49;;;;;;;;;;;;;;;;;;347377;28;1007;-73
2022/04/12 00:30:59;;;;;;;;;;;;;;;;;;347463;28;856;-73
2022/04/12 00:31:09;;;;;;;;;;;;;;;;;;347370;28;916;-74
2022/04/12 00:31:20;;;;;;;;;;;;;;;;;;347438;28;995;-73
2022/04/12 00:31:31;;;;;;;;;;;;;;;;;;347401;28;1192;-73
2022/04/12 00:31:41;;;;;;;;;;;;;;;;;;347461;28;851;-73
2022/04/12 00:31:51;;;;;;;;;;;;;;;;;;347384;28;936;-74
2022/04/12 00:32:02;;;;;;;;;;;;;;;;;;347101;28;1471;-73
2022/04/12 00:32:12;;;;;;;;;;;;;;;;;;347047;28;1461;-73
2022/04/12 00:32:22;;;;;;;;;;;;;;;;;;346073;28;898;-73
2022/04/12 00:32:33;;;;;;;;;;;;;;;;;;345775;28;1008;-74
2022/04/12 00:32:43;;;;;;;;;;;;;;;;;;346069;28;925;-73
2022/04/12 00:32:54;;;;;;;;;;;;;;;;;;346033;28;849;-74
2022/04/12 00:33:04;;;;;;;;;;;;;;;;;;345977;28;917;-73
2022/04/12 00:33:15;;;;;;;;;;;;;;;;;;346038;28;940;-73
2022/04/12 00:33:25;;;;;;;;;;;;;;;;;;346068;28;940;-73
2022/04/12 00:33:35;;;;;;;;;;;;;;;;;;345812;28;995;-73
2022/04/12 00:33:45;;;;;;;;;;;;;;;;;;346071;28;778;-73
2022/04/12 00:33:55;;;;;;;;;;;;;;;;;;346058;28;932;-73
2022/04/12 00:34:06;;;;;;;;;;;;;;;;;;346014;28;931;-73
2022/04/12 00:34:16;;;;;;;;;;;;;;;;;;346044;28;912;-73
2022/04/12 00:34:26;;;;;;;;;;;;;;;;;;346054;28;929;-73
2022/04/12 00:34:37;;;;;;;;;;;;;;;;;;346011;28;933;-73
2022/04/12 00:34:47;;;;;;;;;;;;;;;;;;346072;28;794;-73
2022/04/12 00:34:57;;;;;;;;;;;;;;;;;;346000;28;1084;-73
2022/04/12 00:35:08;;;;;;;;;;;;;;;;;;345991;28;1532;-73
2022/04/12 00:35:19;;;;;;;;;;;;;;;;;;347161;28;1449;-73
2022/04/12 00:35:30;;;;;;;;;;;;;;;;;;346028;28;992;-73
2022/04/12 00:35:40;;;;;;;;;;;;;;;;;;346027;28;826;-73
2022/04/12 00:35:51;;;;;;;;;;;;;;;;;;346071;28;936;-73
2022/04/12 00:36:02;;;;;;;;;;;;;;;;;;345996;28;1012;-73
2022/04/12 00:36:13;;;;;;;;;;;;;;;;;;345980;28;857;-73
2022/04/12 00:36:23;;;;;;;;;;;;;;;;;;345845;28;1014;-73
2022/04/12 00:36:33;;;;;;;;;;;;;;;;;;346063;28;913;-73
2022/04/12 00:36:43;;;;;;;;;;;;;;;;;;346079;28;775;-73
2022/04/12 00:36:53;;;;;;;;;;;;;;;;;;346053;28;980;-73
2022/04/12 00:37:04;;;;;;;;;;;;;;;;;;346050;28;913;-73
2022/04/12 00:37:14;;;;;;;;;;;;;;;;;;345976;28;862;-73
2022/04/12 00:37:25;;;;;;;;;;;;;;;;;;346017;28;913;-74
2022/04/12 00:37:35;;;;;;;;;;;;;;;;;;346047;28;909;-73
2022/04/12 00:37:46;;;;;;;;;;;;;;;;;;346066;28;921;-73
2022/04/12 00:37:56;;;;;;;;;;;;;;;;;;346012;28;945;-73
2022/04/12 00:38:17;;;;;;;;;;;;;;;;;;346086;28;838;-73
2022/04/12 00:38:33;;;;;;;;;;;;;;;;;;346029;28;996;-73
2022/04/12 00:38:43;;;;;;;;;;;;;;;;;;346036;28;1039;-73
2022/04/12 00:38:53;;;;;;;;;;;;;;;;;;346059;28;924;-73
2022/04/12 00:39:04;;;;;;;;;;;;;;;;;;346023;28;984;-74
2022/04/12 00:39:15;;;;;;;;;;;;;;;;;;346000;28;806;-73
2022/04/12 00:39:25;;;;;;;;;;;;;;;;;;346033;28;917;-73
2022/04/12 00:39:37;;;;;;;;;;;;;;;;;;346046;28;897;-73
2022/04/12 00:39:47;;;;;;;;;;;;;;;;;;346095;28;1023;-73
2022/04/12 00:39:57;;;;;;;;;;;;;;;;;;346075;28;972;-73
2022/04/12 00:40:08;;;;;;;;;;;;;;;;;;346020;28;792;-73
2022/04/12 00:40:19;;;;;;;;;;;;;;;;;;346012;28;1020;-73
2022/04/12 00:40:30;;;;;;;;;;;;;;;;;;346046;28;996;-73
2022/04/12 00:40:42;;;;;;;;;;;;;;;;;;346412;28;1788;-73
2022/04/12 00:40:53;;;;;;;;;;;;;;;;;;347391;28;928;-73
2022/04/12 00:41:05;;;;;;;;;;;;;;;;;;347454;28;818;-73
2022/04/12 00:41:15;;;;;;;;;;;;;;;;;;347321;28;929;-73
2022/04/12 00:41:35;;;;;;;;;;;;;;;;;;347413;28;1166;-73
2022/04/12 00:41:45;;;;;;;;;;;;;;;;;;347414;28;817;-73
2022/04/12 00:41:57;;;;;;;;;;;;;;;;;;347324;28;850;-73
2022/04/12 00:42:07;;;;;;;;;;;;;;;;;;347379;28;1183;-73
2022/04/12 00:42:17;;;;;;;;;;;;;;;;;;347407;28;829;-73
2022/04/12 00:42:27;;;;;;;;;;;;;;;;;;347426;28;864;-73
2022/04/12 00:42:38;;;;;;;;;;;;;;;;;;347395;28;890;-73
2022/04/12 00:42:48;;;;;;;;;;;;;;;;;;347373;28;965;-73
2022/04/12 00:43:02;;;;;;;;;;;;;;;;;;347398;28;928;-73
2022/04/12 00:43:15;;;;;;;;;;;;;;;;;;347377;28;920;-73
2022/04/12 00:43:26;;;;;;;;;;;;;;;;;;347324;28;920;-73
2022/04/12 00:43:37;;;;;;;;;;;;;;;;;;347405;28;905;-73
2022/04/12 00:43:47;;;;;;;;;;;;;;;;;;347335;28;1052;-74
2022/04/12 00:43:58;;;;;;;;;;;;;;;;;;347383;28;921;-73
2022/04/12 00:44:08;;;;;;;;;;;;;;;;;;347445;28;837;-73
2022/04/12 00:44:19;;;;;;;;;;;;;;;;;;347407;28;882;-73
2022/04/12 00:44:29;;;;;;;;;;;;;;;;;;347351;28;960;-73
2022/04/12 00:44:39;;;;;;;;;;;;;;;;;;347373;28;1159;-73
2022/04/12 00:44:49;;;;;;;;;;;;;;;;;;347378;28;1003;-74
2022/04/12 00:45:00;;;;;;;;;;;;;;;;;;347416;28;924;-73
2022/04/12 00:45:10;;;;;;;;;;;;;;;;;;347391;28;786;-73
2022/04/12 00:45:21;;;;;;;;;;;;;;;;;;347388;28;924;-73
2022/04/12 00:45:31;;;;;;;;;;;;;;;;;;347037;28;849;-73
2022/04/12 00:45:41;;;;;;;;;;;;;;;;;;347407;28;865;-74
2022/04/12 00:45:51;;;;;;;;;;;;;;;;;;347323;28;967;-73
2022/04/12 00:46:02;;;;;;;;;;;;;;;;;;347418;28;999;-73
2022/04/12 00:46:13;;;;;;;;;;;;;;;;;;347452;28;904;-74
2022/04/12 00:46:23;;;;;;;;;;;;;;;;;;347406;28;781;-73
2022/04/12 00:46:33;;;;;;;;;;;;;;;;;;347353;28;924;-73
2022/04/12 00:46:43;;;;;;;;;;;;;;;;;;347460;28;798;-73
2022/04/12 00:46:53;;;;;;;;;;;;;;;;;;347386;28;1043;-74
2022/04/12 00:47:04;;;;;;;;;;;;;;;;;;347409;28;967;-74
2022/04/12 00:47:14;;;;;;;;;;;;;;;;;;347379;28;909;-74
2022/04/12 00:47:25;;;;;;;;;;;;;;;;;;347390;28;897;-73
2022/04/12 00:47:35;;;;;;;;;;;;;;;;;;347341;28;770;-73
2022/04/12 00:47:45;;;;;;;;;;;;;;;;;;347445;28;884;-73
2022/04/12 00:47:56;;;;;;;;;;;;;;;;;;347348;28;912;-73
2022/04/12 00:48:06;;;;;;;;;;;;;;;;;;347459;28;813;-73
2022/04/12 00:48:16;;;;;;;;;;;;;;;;;;346279;28;1335;-73
2022/04/12 00:48:27;;;;;;;;;;;;;;;;;;346005;28;960;-73
2022/04/12 00:48:38;;;;;;;;;;;;;;;;;;345932;28;1910;-74
2022/04/12 00:48:48;;;;;;;;;;;;;;;;;;346059;28;969;-73
2022/04/12 00:48:58;;;;;;;;;;;;;;;;;;346048;28;1171;-73
2022/04/12 00:49:08;;;;;;;;;;;;;;;;;;346038;28;999;-73
2022/04/12 00:49:18;;;;;;;;;;;;;;;;;;345953;28;997;-74
2022/04/12 00:49:29;;;;;;;;;;;;;;;;;;345809;28;1008;-73
2022/04/12 00:49:39;;;;;;;;;;;;;;;;;;345972;28;928;-73
2022/04/12 00:49:50;;;;;;;;;;;;;;;;;;346016;28;988;-73
2022/04/12 00:50:00;;;;;;;;;;;;;;;;;;345975;28;944;-74
2022/04/12 00:50:11;;;;;;;;;;;;;;;;;;346055;28;786;-73
2022/04/12 00:50:21;;;;;;;;;;;;;;;;;;346038;28;818;-73
2022/04/12 00:50:32;;;;;;;;;;;;;;;;;;345822;28;997;-73
2022/04/12 00:50:43;;;;;;;;;;;;;;;;;;346003;28;798;-73
2022/04/12 00:50:54;;;;;;;;;;;;;;;;;;346030;28;969;-74
2022/04/12 00:51:04;;;;;;;;;;;;;;;;;;346046;28;988;-73
2022/04/12 00:51:15;;;;;;;;;;;;;;;;;;346048;28;937;-73
2022/04/12 00:51:25;;;;;;;;;;;;;;;;;;345974;28;913;-74
2022/04/12 00:51:35;;;;;;;;;;;;;;;;;;346011;28;903;-73
2022/04/12 00:51:46;;;;;;;;;;;;;;;;;;346000;28;913;-74
2022/04/12 00:51:57;;;;;;;;;;;;;;;;;;345819;28;1123;-74
2022/04/12 00:52:08;;;;;;;;;;;;;;;;;;345964;28;1017;-73
2022/04/12 00:52:18;;;;;;;;;;;;;;;;;;346064;28;869;-73
2022/04/12 00:52:29;;;;;;;;;;;;;;;;;;346074;28;814;-73
2022/04/12 00:52:41;;;;;;;;;;;;;;;;;;346007;28;846;-73
2022/04/12 00:52:52;;;;;;;;;;;;;;;;;;346016;28;968;-73
2022/04/12 00:53:02;;;;;;;;;;;;;;;;;;346039;28;779;-73
2022/04/12 00:53:13;;;;;;;;;;;;;;;;;;346025;28;866;-73
2022/04/12 00:53:24;;;;;;;;;;;;;;;;;;346034;28;873;-73
2022/04/12 00:53:34;;;;;;;;;;;;;;;;;;345971;28;924;-73
2022/04/12 00:53:45;;;;;;;;;;;;;;;;;;345968;28;995;-73
2022/04/12 00:53:56;;;;;;;;;;;;;;;;;;345999;28;1072;-73
2022/04/12 00:54:07;;;;;;;;;;;;;;;;;;346056;28;965;-74
2022/04/12 00:54:19;;;;;;;;;;;;;;;;;;345976;28;937;-74
2022/04/12 00:54:31;;;;;;;;;;;;;;;;;;346034;28;913;-73
2022/04/12 00:54:42;;;;;;;;;;;;;;;;;;345989;28;916;-73
2022/04/12 00:54:53;;;;;;;;;;;;;;;;;;345971;28;1008;-73
2022/04/12 00:55:04;;;;;;;;;;;;;;;;;;345985;28;895;-73
2022/04/12 00:55:15;;;;;;;;;;;;;;;;;;346012;28;941;-73
2022/04/12 00:55:25;;;;;;;;;;;;;;;;;;346373;28;1893;-74
2022/04/12 00:55:35;;;;;;;;;;;;;;;;;;347401;28;774;-74
2022/04/12 00:55:45;;;;;;;;;;;;;;;;;;347375;28;901;-73
2022/04/12 00:55:56;;;;;;;;;;;;;;;;;;347355;28;871;-73
2022/04/12 00:56:06;;;;;;;;;;;;;;;;;;347351;28;865;-73
2022/04/12 00:56:17;;;;;;;;;;;;;;;;;;347126;28;943;-73
2022/04/12 00:56:27;;;;;;;;;;;;;;;;;;347308;28;932;-73
2022/04/12 00:56:37;;;;;;;;;;;;;;;;;;347052;28;1313;-73
2022/04/12 00:56:49;;;;;;;;;;;;;;;;;;346360;28;1574;-73
2022/04/12 00:57:00;;;;;;;;;;;;;;;;;;346009;28;980;-73
2022/04/12 00:57:11;;;;;;;;;;;;;;;;;;346003;28;974;-73
2022/04/12 00:57:21;;;;;;;;;;;;;;;;;;346041;28;876;-73
2022/04/12 00:57:32;;;;;;;;;;;;;;;;;;346019;28;909;-73
2022/04/12 00:57:42;;;;;;;;;;;;;;;;;;345995;28;1142;-73
2022/04/12 00:57:52;;;;;;;;;;;;;;;;;;345941;28;921;-73
2022/04/12 00:58:06;;;;;;;;;;;;;;;;;;346036;28;886;-72
2022/04/12 00:58:17;;;;;;;;;;;;;;;;;;346061;28;953;-73
2022/04/12 00:58:28;;;;;;;;;;;;;;;;;;346018;28;861;-73
2022/04/12 00:58:39;;;;;;;;;;;;;;;;;;345954;28;869;-73
2022/04/12 00:58:49;;;;;;;;;;;;;;;;;;345976;28;1052;-73
2022/04/12 00:59:02;;;;;;;;;;;;;;;;;;345974;28;1197;-73
2022/04/12 00:59:12;;;;;;;;;;;;;;;;;;346007;28;1004;-73
2022/04/12 00:59:23;;;;;;;;;;;;;;;;;;345986;28;960;-73
2022/04/12 00:59:34;;;;;;;;;;;;;;;;;;345992;28;1105;-74
2022/04/12 00:59:45;;;;;;;;;;;;;;;;;;345975;28;985;-73
2022/04/12 00:59:56;;;;;;;;;;;;;;;;;;346073;28;929;-74
2022/04/12 01:00:07;;;;;;;;;;;;;;;;;;345926;28;860;-74
2022/04/12 01:00:18;;;;;;;;;;;;;;;;;;345986;28;846;-73
2022/04/12 01:00:28;;;;;;;;;;;;;;;;;;346059;28;803;-73
2022/04/12 01:00:38;;;;;;;;;;;;;;;;;;346026;28;893;-74
2022/04/12 01:00:49;;;;;;;;;;;;;;;;;;345716;28;1179;-73
2022/04/12 01:00:59;;;;;;;;;;;;;;;;;;345988;28;1008;-73
2022/04/12 01:01:09;;;;;;;;;;;;;;;;;;346023;28;980;-74
2022/04/12 01:01:19;;;;;;;;;;;;;;;;;;346002;28;996;-73
2022/04/12 01:01:31;;;;;;;;;;;;;;;;;;345984;28;960;-73
2022/04/12 01:01:41;;;;;;;;;;;;;;;;;;346012;28;834;-73
2022/04/12 01:01:51;;;;;;;;;;;;;;;;;;346026;28;881;-73
2022/04/12 01:02:05;;;;;;;;;;;;;;;;;;346026;28;909;-74
2022/04/12 01:02:15;;;;;;;;;;;;;;;;;;345960;28;842;-73
2022/04/12 01:02:26;;;;;;;;;;;;;;;;;;346320;28;921;-73
2022/04/12 01:02:36;;;;;;;;;;;;;;;;;;347297;28;1028;-73
2022/04/12 01:02:46;;;;;;;;;;;;;;;;;;347217;28;1226;-73
2022/04/12 01:02:57;;;;;;;;;;;;;;;;;;347377;28;944;-74
2022/04/12 01:03:07;;;;;;;;;;;;;;;;;;347362;28;857;-73
2022/04/12 01:03:18;;;;;;;;;;;;;;;;;;347200;28;1003;-74
2022/04/12 01:03:28;;;;;;;;;;;;;;;;;;347410;28;1078;-73
2022/04/12 01:03:38;;;;;;;;;;;;;;;;;;347360;28;965;-74
2022/04/12 01:03:48;;;;;;;;;;;;;;;;;;347354;28;968;-74
2022/04/12 01:03:58;;;;;;;;;;;;;;;;;;347349;28;792;-73
2022/04/12 01:04:09;;;;;;;;;;;;;;;;;;347373;28;924;-74
2022/04/12 01:04:19;;;;;;;;;;;;;;;;;;347351;28;835;-73
2022/04/12 01:04:30;;;;;;;;;;;;;;;;;;347360;28;1039;-73
2022/04/12 01:04:40;;;;;;;;;;;;;;;;;;347393;28;995;-73
2022/04/12 01:04:50;;;;;;;;;;;;;;;;;;347295;28;1007;-73
2022/04/12 01:05:01;;;;;;;;;;;;;;;;;;347417;28;932;-73
2022/04/12 01:05:12;;;;;;;;;;;;;;;;;;347389;28;925;-73
2022/04/12 01:05:22;;;;;;;;;;;;;;;;;;347404;28;881;-73
2022/04/12 01:05:34;;;;;;;;;;;;;;;;;;347358;28;963;-73
2022/04/12 01:05:44;;;;;;;;;;;;;;;;;;347314;28;856;-74
2022/04/12 01:05:55;;;;;;;;;;;;;;;;;;347314;28;1036;-73
2022/04/12 01:06:07;;;;;;;;;;;;;;;;;;347405;28;849;-73
2022/04/12 01:06:18;;;;;;;;;;;;;;;;;;347320;28;964;-74
2022/04/12 01:06:28;;;;;;;;;;;;;;;;;;347401;28;876;-73
2022/04/12 01:06:39;;;;;;;;;;;;;;;;;;347350;28;791;-74
2022/04/12 01:06:49;;;;;;;;;;;;;;;;;;347379;28;928;-73
2022/04/12 01:07:00;;;;;;;;;;;;;;;;;;347369;28;983;-73
2022/04/12 01:07:11;;;;;;;;;;;;;;;;;;347399;28;932;-73
2022/04/12 01:07:21;;;;;;;;;;;;;;;;;;347447;28;996;-73
2022/04/12 01:07:32;;;;;;;;;;;;;;;;;;347319;28;986;-74
2022/04/12 01:07:42;;;;;;;;;;;;;;;;;;347369;28;843;-73
2022/04/12 01:07:53;;;;;;;;;;;;;;;;;;347400;28;829;-73
2022/04/12 01:08:03;;;;;;;;;;;;;;;;;;347389;28;778;-73
2022/04/12 01:08:14;;;;;;;;;;;;;;;;;;347293;28;1012;-73
2022/04/12 01:08:24;;;;;;;;;;;;;;;;;;347340;28;984;-73
2022/04/12 01:08:35;;;;;;;;;;;;;;;;;;347333;28;1910;-73
2022/04/12 01:08:45;;;;;;;;;;;;;;;;;;347353;28;1075;-73
2022/04/12 01:08:55;;;;;;;;;;;;;;;;;;347375;28;932;-73
2022/04/12 01:09:06;;;;;;;;;;;;;;;;;;347356;28;893;-74
2022/04/12 01:09:16;;;;;;;;;;;;;;;;;;346841;28;1283;-73
2022/04/12 01:09:27;;;;;;;;;;;;;;;;;;346040;28;952;-73
2022/04/12 01:09:37;;;;;;;;;;;;;;;;;;346023;28;920;-73
2022/04/12 01:09:47;;;;;;;;;;;;;;;;;;346030;28;830;-74
2022/04/12 01:09:58;;;;;;;;;;;;;;;;;;345946;28;995;-74
2022/04/12 01:10:09;;;;;;;;;;;;;;;;;;346346;28;1862;-73
2022/04/12 01:10:19;;;;;;;;;;;;;;;;;;346021;28;961;-74
2022/04/12 01:10:32;;;;;;;;;;;;;;;;;;345966;28;956;-73
2022/04/12 01:10:44;;;;;;;;;;;;;;;;;;345954;28;1019;-73
2022/04/12 01:10:54;;;;;;;;;;;;;;;;;;346006;28;905;-73
2022/04/12 01:11:07;;;;;;;;;;;;;;;;;;346027;28;873;-73
2022/04/12 01:11:17;;;;;;;;;;;;;;;;;;346009;28;952;-74
2022/04/12 01:11:27;;;;;;;;;;;;;;;;;;346002;28;834;-74
2022/04/12 01:11:39;;;;;;;;;;;;;;;;;;346037;28;873;-73
2022/04/12 01:11:51;;;;;;;;;;;;;;;;;;346001;28;1016;-73
2022/04/12 01:12:09;;;;;;;;;;;;;;;;;;345952;28;976;-74
2022/04/12 01:12:21;;;;;;;;;;;;;;;;;;346024;28;933;-73
2022/04/12 01:12:38;;;;;;;;;;;;;;;;;;345984;28;873;-73
2022/04/12 01:12:50;;;;;;;;;;;;;;;;;;346004;28;902;-73
2022/04/12 01:13:01;;;;;;;;;;;;;;;;;;345956;28;1096;-73
2022/04/12 01:13:11;;;;;;;;;;;;;;;;;;345955;28;988;-74
2022/04/12 01:13:21;;;;;;;;;;;;;;;;;;346007;28;799;-73
2022/04/12 01:13:32;;;;;;;;;;;;;;;;;;346023;28;917;-73
2022/04/12 01:13:42;;;;;;;;;;;;;;;;;;345955;28;988;-73
2022/04/12 01:13:53;;;;;;;;;;;;;;;;;;346001;28;988;-73
2022/04/12 01:14:03;;;;;;;;;;;;;;;;;;346211;28;1875;-73
2022/04/12 01:14:14;;;;;;;;;;;;;;;;;;347234;28;1789;-73
2022/04/12 01:14:25;;;;;;;;;;;;;;;;;;347384;28;961;-73
2022/04/12 01:14:36;;;;;;;;;;;;;;;;;;347315;28;976;-73
2022/04/12 01:14:46;;;;;;;;;;;;;;;;;;347316;28;976;-73
2022/04/12 01:15:12;;;;;;;;;;;;;;;;;;347396;28;873;-73
2022/04/12 01:15:24;;;;;;;;;;;;;;;;;;347284;28;979;-73
2022/04/12 01:15:35;;;;;;;;;;;;;;;;;;347365;28;826;-73
2022/04/12 01:15:46;;;;;;;;;;;;;;;;;;347342;28;936;-74
2022/04/12 01:15:56;;;;;;;;;;;;;;;;;;347321;28;948;-74
2022/04/12 01:16:07;;;;;;;;;;;;;;;;;;347353;28;901;-73
2022/04/12 01:16:17;;;;;;;;;;;;;;;;;;347376;28;925;-73
2022/04/12 01:16:27;;;;;;;;;;;;;;;;;;347332;28;1075;-73
2022/04/12 01:16:38;;;;;;;;;;;;;;;;;;347339;28;901;-74
2022/04/12 01:16:48;;;;;;;;;;;;;;;;;;347339;28;881;-73
2022/04/12 01:17:02;;;;;;;;;;;;;;;;;;347336;28;838;-74
2022/04/12 01:17:12;;;;;;;;;;;;;;;;;;347332;28;1020;-73
2022/04/12 01:17:22;;;;;;;;;;;;;;;;;;347164;28;1142;-73
2022/04/12 01:17:32;;;;;;;;;;;;;;;;;;347329;28;1000;-73
2022/04/12 01:17:43;;;;;;;;;;;;;;;;;;347328;28;909;-73
2022/04/12 01:17:53;;;;;;;;;;;;;;;;;;347311;28;953;-73
2022/04/12 01:18:04;;;;;;;;;;;;;;;;;;347357;28;798;-73
2022/04/12 01:18:14;;;;;;;;;;;;;;;;;;347416;28;838;-73
2022/04/12 01:18:24;;;;;;;;;;;;;;;;;;347377;28;992;-74
2022/04/12 01:18:34;;;;;;;;;;;;;;;;;;347340;28;885;-74
2022/04/12 01:18:45;;;;;;;;;;;;;;;;;;347365;28;913;-73